x

Half Moon Bay - 24nm Ssw Of San Francisco, Ca (46012) Wave Buoy

12:50am - Fri 22nd Jun 2018 All times are PDT. -7 hours from GMT.

  • Sig Wave height 6.2ft
  • Swell Direction
  • Peak Period 8s
  • Average Period 6s
  • Wind
    13mph, 16mph gusts
  • Sea Temp 54°f
  • Air Temp 55°f
  • Sea Pressure 1016.3mb
  • Half Moon Bay - 24nm Ssw Of San Francisco, Ca
  • Half Moon Bay - 24nm Ssw Of San Francisco, Ca

More Historic Weather Station data

Upgrade to MSW Pro to gain access to the past 30 days of data for over 8000 Wavebouys and Weather Stations around the globe.

Join

Comparision Forecast

View Surf forecast
   
Fri 06/22 12:50am 6ft 8s 6s 13 16 mph 1016.3mb 54f 55f
Thu 06/21 11:50pm 6ft 8s 6s 13 18 mph 1016.3mb 54f 55f
10:50pm 6ft 8s 6s 13 18 mph 1016.8mb 54f 55f
9:50pm 6ft 8s 6s 11 13 mph 1016.7mb 54f 55f
8:50pm 5.5ft 7s 6s 11 13 mph 1016.2mb 54f 55f
7:50pm 5ft 8s 6s 16 18 mph 1016.5mb 55f 55f
6:50pm 5ft 7s 6s 16 16 mph 1016.5mb 54f 55f
5:50pm 5ft 8s 6s 13 18 mph 1016.9mb 54f 55f
4:50pm 5ft 7s 6s 13 16 mph 1017.2mb 54f 55f
3:50pm 5.5ft 7s 6s 11 13 mph 1017.6mb 53f 55f
2:50pm 5.5ft 7s 6s 11 16 mph 1018mb 53f 55f
1:50pm 5ft 7s 6s 11 13 mph 1018.3mb 53f 55f
12:50pm 5.5ft 7s 6s 13 16 mph 1018.6mb 53f 55f
11:50am 6ft 7s 6s 13 16 mph 1018.8mb 53f 54f
10:50am 6ft 7s 6s 16 20 mph 1018.7mb 53f 54f
9:50am 5.5ft 7s 6s 13 16 mph 1018.5mb 53f 54f
8:50am 6ft 7s 6s 16 18 mph 1018.3mb 53f 54f
7:50am 6ft 6s 6s 16 20 mph 1018mb 53f 54f
6:50am 6ft 6s 6s 13 18 mph 1018mb 53f 53f
5:50am 5.5ft 7s 6s 16 18 mph 1017.6mb 53f 53f
4:50am 5.5ft 7s 6s 18 20 mph 1017.3mb 53f 54f
3:50am 6ft 7s 6s 18 22 mph 1017.1mb 53f 54f
2:50am 6ft 7s 6s 16 20 mph 1017.3mb 53f 54f
1:50am 5.5ft 7s 5s 18 22 mph 1017.6mb 53f 54f
12:50am 6ft 7s 6s 18 22 mph 1017.7mb 53f 54f
Wed 06/20 11:50pm 6ft 11s 6s 18 20 mph 1017.7mb 53f 54f
10:50pm 5.5ft 11s 5s 13 18 mph 1018mb 53f 54f
9:50pm 5ft 11s 6s 16 20 mph 1017.8mb 53f 55f
8:50pm 4.5ft 12s 5s 18 22 mph 1017.5mb 54f 55f
7:50pm 4.5ft 11s 5s 18 22 mph 1017.6mb 54f 55f
6:50pm 4.5ft 12s 5s 16 18 mph 1017.7mb 54f 55f
5:50pm 4ft 13s 6s 16 18 mph 1017.8mb 54f 55f
4:50pm 4ft 11s 6s 13 16 mph 1018.2mb 54f 55f
3:50pm 4ft 13s 6s 13 18 mph 1018.5mb 54f 55f
2:50pm 4.5ft 11s 6s 11 13 mph 1018.9mb 54f 55f
1:50pm 4.5ft 12s 6s 9 13 mph 1018.9mb 53f 54f
11:50am 4.5ft 14s 6s 9 11 mph 1019mb 53f 54f
10:50am 4.5ft 13s 6s 11 13 mph 1018.7mb 53f 53f
9:50am 4.5ft 14s 6s 13 16 mph 1018.6mb 53f 54f
8:50am 4.5ft 14s 6s 11 13 mph 1018.4mb 53f 53f
7:50am 4.5ft 14s 6s 16 18 mph 1017.9mb 54f 53f
6:50am 4.5ft 15s 6s 16 20 mph 1017.6mb 54f 53f
5:50am 4.5ft 11s 6s 13 18 mph 1017.3mb 53f 53f
4:50am 5ft 11s 6s 13 18 mph 1017.2mb 53f 53f
3:50am 4.5ft 15s 6s 16 18 mph 1017.4mb 53f 53f
2:50am 5ft 14s 6s 16 20 mph 1017.6mb 53f 53f
1:50am 5ft 11s 6s 13 18 mph 1017.3mb 53f 53f
12:50am 5ft 11s 6s 13 18 mph 1017.7mb 53f 53f
Tue 06/19 11:50pm 5ft 11s 6s 13 18 mph 1017.8mb 53f 53f
10:50pm 5ft 11s 6s 16 18 mph 1018.4mb 53f 53f
9:50pm 5ft 12s 6s 13 16 mph 1018.3mb 53f 53f
8:50pm 5ft 12s 7s 13 18 mph 1018.2mb 53f 54f
7:50pm 5ft 11s 7s 13 18 mph 1018.1mb 53f 54f
6:50pm 4.5ft 12s 6s 16 20 mph 1017.9mb 53f 54f
5:50pm 5ft 11s 7s 11 13 mph 1018mb 53f 54f
4:50pm 4.5ft 15s 7s 13 16 mph 1018.2mb 53f 55f
3:50pm 4.5ft 11s 8s 13 16 mph 1018.3mb 53f 55f
2:50pm 5ft 12s 8s 11 13 mph 1018.8mb 53f 55f
1:50pm 5ft 15s 8s 7 9 mph 1018.8mb 53f 55f
12:50pm 5ft 12s 8s 9 11 mph 1019.3mb 53f 54f
11:50am 5.5ft 15s 7s 7 7 mph 1019.4mb 53f 54f
10:50am 5ft 15s 8s 7 9 mph 1019.2mb 53f 53f
9:50am 5ft 12s 8s 7 9 mph 1019.2mb 53f 53f
8:50am 5ft 15s 7s 9 11 mph 1019.3mb 53f 53f
7:50am 5.5ft 12s 8s 11 13 mph 1018.6mb 53f 53f
6:50am 5ft 14s 8s 11 13 mph 1018mb 53f 53f
5:50am 5.5ft 12s 9s 9 11 mph 1017.8mb 53f 53f
4:50am 5ft 13s 9s 9 11 mph 1017.7mb 53f 53f
3:50am 5ft 14s 9s 9 11 mph 1017.6mb 52f 53f
2:50am 6ft 13s 10s 9 13 mph 1017.9mb 52f 53f
1:50am 5.5ft 14s 9s 7 11 mph 1017.9mb 52f 53f
12:50am 5ft 13s 9s 9 11 mph 1018.4mb 53f 53f
Mon 06/18 4:50pm 5ft 15s 9s 7 9 mph 1017.4mb 54f 55f
3:50pm 5ft 14s 10s 4 7 mph 1017.9mb 54f 55f
2:50pm 5ft 16s 10s 4 7 mph 1018.1mb 54f 55f
1:50pm 5ft 15s 9s 4 7 mph 1018.2mb 54f 55f
12:50pm 5.5ft 12s 9s 7 7 mph 1018.4mb 54f 55f
11:50am 5.5ft 15s 9s 2 2 mph 1018.4mb 54f 56f
10:50am 5.5ft 16s 9s 2 2 mph 1018.5mb 54f 55f
9:50am 5.5ft 13s 9s 2 4 mph 1018.3mb 53f 55f